Terminal Aerodrome Forecast
Issued by NWS Norman, OK

Home | Current Version | Previous Version | Text Only | Print | Product List | Glossary On
Versions: 1 2 3 4 5 6 7 8 9 10 11 12
000
FTUS44 KOUN 262320
TAFOKC
TAF
KOKC 262320Z 2700/2724 07005KT P6SM FEW060 SCT250
     FM271100 16010KT 6SM BR BKN012
     FM271600 19012G20KT P6SM SCT020 SCT150=

USA.gov is the U.S. government's official web portal to all federal, state and local government web resources and services.